Time;durP1;ratioP1;P1;durP2;ratioP2;P2;SDS_P1;SDS_P2;PMS_P1;PMS_P2;Temp;Humidity;BMP_temperature;BMP_pressure;BME280_temperature;BME280_humidity;BME280_pressure;Samples;Min_cycle;Max_cycle;Signal;HPM_P1;HPM_P2
2023/02/12 00:00:32;;;;;;;42.03;27.50;;;;;;;10.22;50.49;99360.06;5003733;28;20422;-71
2023/02/12 00:02:58;;;;;;;41.77;26.87;;;;;;;10.23;50.38;99362.56;4994930;28;20240;-70
2023/02/12 00:05:24;;;;;;;40.27;26.73;;;;;;;10.19;50.61;99366.34;4982497;28;20195;-71
2023/02/12 00:07:49;;;;;;;35.73;24.73;;;;;;;10.19;50.63;99362.88;4987407;28;20181;-71
2023/02/12 00:10:14;;;;;;;36.70;25.27;;;;;;;10.24;50.83;99366.88;4994196;28;20240;-70
2023/02/12 00:12:40;;;;;;;37.70;24.80;;;;;;;10.24;50.81;99358.19;4993599;28;20993;-70
2023/02/12 00:15:06;;;;;;;38.57;25.13;;;;;;;10.24;50.67;99359.00;4993138;28;20327;-69
2023/02/12 00:17:31;;;;;;;36.30;24.37;;;;;;;10.04;50.87;99365.50;4989921;28;20305;-70
2023/02/12 00:19:57;;;;;;;37.10;23.83;;;;;;;10.07;51.25;99372.34;4987056;28;20840;-70
2023/02/12 00:22:22;;;;;;;35.23;23.53;;;;;;;10.15;51.01;99372.72;4992975;28;20213;-70
2023/02/12 00:24:48;;;;;;;39.20;24.87;;;;;;;10.17;50.95;99373.47;4992605;28;20262;-68
2023/02/12 00:27:13;;;;;;;38.70;26.60;;;;;;;10.24;50.40;99374.75;4990277;28;20191;-70
2023/02/12 00:29:38;;;;;;;38.00;25.33;;;;;;;10.22;50.83;99371.38;5002705;28;20180;-70
2023/02/12 00:32:04;;;;;;;41.40;25.17;;;;;;;10.23;50.61;99373.06;5000026;28;20173;-71
2023/02/12 00:34:30;;;;;;;39.43;25.37;;;;;;;10.22;50.82;99371.38;4998549;28;20679;-70
2023/02/12 00:36:55;;;;;;;35.93;23.60;;;;;;;10.16;50.95;99374.41;5001155;28;20254;-70
2023/02/12 00:39:20;;;;;;;36.10;23.13;;;;;;;10.01;51.39;99381.44;4998320;28;20327;-70
2023/02/12 00:41:46;;;;;;;35.50;24.00;;;;;;;10.04;51.22;99377.78;5000761;28;20236;-70
2023/02/12 00:44:11;;;;;;;38.37;24.47;;;;;;;10.11;50.84;99379.06;4997269;28;20216;-70
2023/02/12 00:46:37;;;;;;;41.23;25.10;;;;;;;10.13;51.15;99382.44;4996778;28;20702;-70
2023/02/12 00:49:02;;;;;;;36.90;23.93;;;;;;;10.16;51.08;99382.25;5000623;28;20203;-70
2023/02/12 00:51:28;;;;;;;38.10;24.37;;;;;;;10.16;50.80;99392.75;4995331;28;20263;-70
2023/02/12 00:53:53;;;;;;;41.33;25.47;;;;;;;10.17;50.65;99389.19;5000038;28;20196;-69
2023/02/12 00:56:19;;;;;;;38.00;24.70;;;;;;;10.12;51.08;99393.84;4998738;28;20196;-71
2023/02/12 00:58:44;;;;;;;37.57;24.47;;;;;;;10.09;50.92;99401.91;5003100;28;20185;-70
2023/02/12 01:01:10;;;;;;;35.83;24.70;;;;;;;10.11;50.87;99390.41;5000859;28;20295;-69
2023/02/12 01:03:35;;;;;;;35.40;24.27;;;;;;;10.15;50.94;99389.25;5002352;28;20205;-70
2023/02/12 01:06:00;;;;;;;34.40;23.23;;;;;;;10.14;51.12;99390.19;5004827;28;20796;-70
2023/02/12 01:08:26;;;;;;;40.27;24.60;;;;;;;10.08;51.47;99384.53;5003083;28;20697;-70
2023/02/12 01:10:57;;;;;;;37.23;23.23;;;;;;;10.13;51.19;99388.53;4997813;28;20176;-70
2023/02/12 01:13:24;;;;;;;38.30;23.63;;;;;;;10.11;51.32;99381.69;5000385;28;20608;-70
2023/02/12 01:16:00;;;;;;;38.90;24.07;;;;;;;10.05;51.17;99385.53;5003876;28;20429;-70
2023/02/12 01:18:25;;;;;;;33.37;23.43;;;;;;;10.08;51.39;99395.00;4995683;28;20435;-70
2023/02/12 01:20:50;;;;;;;33.60;23.20;;;;;;;10.07;51.43;99395.94;4994771;28;20534;-69
2023/02/12 01:23:16;;;;;;;35.03;23.07;;;;;;;10.08;51.38;99395.84;4997476;28;20295;-70
2023/02/12 01:25:41;;;;;;;34.80;23.10;;;;;;;10.12;51.39;99392.09;5000462;28;20187;-70
2023/02/12 01:28:09;;;;;;;34.20;23.00;;;;;;;10.14;51.42;99382.34;5001379;28;20734;-69
2023/02/12 01:30:34;;;;;;;34.47;23.83;;;;;;;10.21;51.16;99385.41;5006522;28;20181;-71
2023/02/12 01:33:00;;;;;;;37.20;22.13;;;;;;;10.19;51.34;99378.59;5001170;28;20446;-70
2023/02/12 01:35:25;;;;;;;32.40;23.47;;;;;;;10.18;51.27;99374.28;5007098;28;20715;-70
2023/02/12 01:37:51;;;;;;;33.47;22.47;;;;;;;10.13;51.27;99391.16;4998078;28;20652;-70
2023/02/12 01:40:16;;;;;;;32.07;21.83;;;;;;;10.11;51.53;99386.94;4997194;28;20694;-70
2023/02/12 01:42:42;;;;;;;40.40;24.67;;;;;;;10.14;51.23;99387.56;4998647;28;20212;-70
2023/02/12 01:45:11;;;;;;;38.20;22.43;;;;;;;10.12;51.14;99391.22;4996553;28;20205;-69
2023/02/12 01:47:39;;;;;;;34.00;22.63;;;;;;;10.10;51.50;99387.88;4996793;28;20838;-69
2023/02/12 01:50:10;;;;;;;31.00;22.20;;;;;;;10.14;51.48;99381.50;4997665;28;20443;-71
2023/02/12 01:52:37;;;;;;;36.07;24.10;;;;;;;10.06;51.53;99383.78;4987428;28;20578;-70
2023/02/12 01:55:05;;;;;;;32.07;22.67;;;;;;;9.92;51.88;99388.09;4998526;28;20519;-70
2023/02/12 01:57:32;;;;;;;36.30;24.20;;;;;;;9.97;51.81;99379.94;4990162;28;20427;-69
2023/02/12 01:59:59;;;;;;;41.60;25.30;;;;;;;10.07;51.60;99374.97;5001302;28;20429;-70
2023/02/12 02:02:25;;;;;;;39.20;25.07;;;;;;;10.13;51.26;99371.97;4984250;28;20470;-71
2023/02/12 02:04:59;;;;;;;35.13;23.77;;;;;;;10.04;51.67;99372.53;4985462;28;20437;-70
2023/02/12 02:07:25;;;;;;;35.67;23.67;;;;;;;9.98;51.87;99379.84;4969632;28;20180;-69
2023/02/12 02:09:50;;;;;;;37.37;24.63;;;;;;;10.07;51.57;99374.97;5005800;28;20446;-69
2023/02/12 02:15:01;;;;;;;34.50;23.23;;;;;;;10.07;51.61;99373.19;4993998;28;20172;-69
2023/02/12 02:17:52;;;;;;;36.87;24.03;;;;;;;10.11;51.40;99373.81;4967512;28;20445;-69
2023/02/12 02:20:37;;;;;;;39.37;24.57;;;;;;;10.11;51.35;99363.34;4983143;28;20424;-69
2023/02/12 02:23:21;;;;;;;40.83;25.40;;;;;;;10.16;51.27;99369.16;5000821;28;20455;-70
2023/02/12 02:25:56;;;;;;;37.20;25.27;;;;;;;10.15;51.35;99351.75;4997481;28;20919;-70
2023/02/12 02:28:33;;;;;;;41.07;25.70;;;;;;;10.17;51.27;99360.34;4982347;28;20434;-70
2023/02/12 02:31:03;;;;;;;37.10;24.23;;;;;;;10.12;51.14;99357.16;4986602;28;20455;-70
2023/02/12 02:33:35;;;;;;;37.90;24.17;;;;;;;10.11;51.23;99353.72;4979463;28;20450;-69
2023/02/12 02:36:34;;;;;;;35.53;24.63;;;;;;;10.09;51.29;99363.44;4987594;28;20420;-70
2023/02/12 02:39:03;;;;;;;34.93;24.70;;;;;;;10.02;51.40;99350.84;4994627;28;20501;-70
2023/02/12 02:41:59;;;;;;;44.07;25.97;;;;;;;9.97;51.45;99346.72;4987782;28;20490;-70
2023/02/12 02:44:34;;;;;;;39.50;24.43;;;;;;;10.02;51.88;99342.97;4982662;28;20447;-71
2023/02/12 02:47:02;;;;;;;35.60;24.10;;;;;;;10.07;51.47;99346.16;4985308;28;20481;-70
2023/02/12 02:49:36;;;;;;;37.40;25.33;;;;;;;10.04;51.54;99347.16;4969196;28;20423;-70
2023/02/12 02:52:15;;;;;;;42.73;25.50;;;;;;;9.95;51.89;99346.00;4979988;28;20427;-71
2023/02/12 02:54:49;;;;;;;39.17;23.80;;;;;;;9.86;52.35;99354.41;5002768;28;20451;-70
2023/02/12 02:57:20;;;;;;;38.13;25.20;;;;;;;9.90;52.12;99353.28;4988369;28;21040;-70
2023/02/12 02:59:48;;;;;;;43.07;27.17;;;;;;;9.97;51.94;99349.34;4986431;28;20427;-70
2023/02/12 03:02:21;;;;;;;35.13;24.50;;;;;;;9.97;51.85;99346.72;4981497;28;20464;-70
2023/02/12 03:04:57;;;;;;;38.73;24.20;;;;;;;9.99;51.81;99347.47;4987907;28;20438;-70
2023/02/12 03:07:51;;;;;;;41.53;27.17;;;;;;;9.80;52.45;99352.19;4983187;28;20424;-70
2023/02/12 03:10:23;;;;;;;46.23;27.27;;;;;;;9.73;52.58;99348.22;4986511;28;20431;-70
2023/02/12 03:12:54;;;;;;;45.20;26.73;;;;;;;9.79;52.24;99348.69;4969594;28;20462;-70
2023/02/12 03:15:34;;;;;;;42.07;26.97;;;;;;;9.79;52.55;99353.94;4987974;28;20440;-69
2023/02/12 03:18:04;;;;;;;54.87;29.80;;;;;;;9.56;52.99;99362.38;4985379;28;20938;-71
2023/02/12 03:20:34;;;;;;;56.90;31.10;;;;;;;9.56;52.93;99355.38;4981561;28;20412;-70
2023/02/12 03:23:02;;;;;;;52.23;28.70;;;;;;;9.73;52.23;99353.47;5000543;28;20451;-70
2023/02/12 03:25:33;;;;;;;41.80;27.50;;;;;;;9.82;51.94;99358.16;5001584;28;20790;-70
2023/02/12 03:28:06;;;;;;;43.90;27.23;;;;;;;9.80;52.54;99354.78;4980217;28;20798;-70
2023/02/12 03:30:41;;;;;;;42.83;26.20;;;;;;;9.83;52.37;99359.81;5006318;28;20507;-70
2023/02/12 03:33:24;;;;;;;43.27;26.33;;;;;;;9.83;52.05;99367.69;4973893;28;20451;-68
2023/02/12 03:36:02;;;;;;;49.67;27.00;;;;;;;9.81;52.22;99364.34;4988274;28;20502;-70
2023/02/12 03:38:35;;;;;;;43.23;27.97;;;;;;;9.74;52.34;99357.78;4975168;28;20438;-70
2023/02/12 03:41:16;;;;;;;51.40;27.60;;;;;;;9.83;52.38;99358.06;4977692;28;20466;-70
2023/02/12 03:43:54;;;;;;;44.40;26.20;;;;;;;9.89;52.33;99369.09;4979104;28;20448;-69
2023/02/12 03:46:36;;;;;;;44.50;28.37;;;;;;;9.81;52.10;99365.16;4979175;28;20519;-69
2023/02/12 03:49:10;;;;;;;38.27;26.40;;;;;;;9.87;52.13;99355.25;4977682;28;20557;-71
2023/02/12 03:51:41;;;;;;;44.60;27.67;;;;;;;9.89;52.09;99363.88;4976377;28;20429;-70
2023/02/12 03:54:08;;;;;;;40.50;25.97;;;;;;;9.81;52.09;99361.72;4987816;28;20458;-70
2023/02/12 03:56:37;;;;;;;36.67;25.67;;;;;;;9.81;52.32;99372.19;4985985;28;21010;-70
2023/02/12 03:59:03;;;;;;;38.73;24.33;;;;;;;9.86;52.50;99372.75;5005132;28;20427;-70
2023/02/12 04:01:31;;;;;;;42.37;26.03;;;;;;;9.91;52.29;99368.06;4987012;28;20550;-70
2023/02/12 04:03:58;;;;;;;45.90;25.60;;;;;;;9.76;52.46;99363.78;4985669;28;20459;-70
2023/02/12 04:06:27;;;;;;;37.97;24.00;;;;;;;9.77;53.00;99371.53;4996928;28;20447;-70
2023/02/12 04:08:54;;;;;;;38.37;25.70;;;;;;;9.75;52.82;99375.19;4986568;28;20530;-69
2023/02/12 04:11:52;;;;;;;36.93;25.20;;;;;;;9.76;53.24;99379.47;4987250;28;20419;-70
2023/02/12 04:14:42;;;;;;;40.60;24.73;;;;;;;9.84;52.89;99377.22;4966127;28;20517;-70
2023/02/12 04:17:14;;;;;;;33.97;24.13;;;;;;;9.87;52.53;99374.41;4999178;28;20590;-68
2023/02/12 04:19:47;;;;;;;40.47;25.83;;;;;;;9.77;52.68;99381.16;4994286;28;20946;-71
2023/02/12 04:22:33;;;;;;;36.70;24.67;;;;;;;9.80;53.03;99376.56;5000432;28;21043;-69
2023/02/12 04:25:14;;;;;;;35.17;24.70;;;;;;;9.86;52.77;99371.91;4986374;28;20994;-69
2023/02/12 04:27:43;;;;;;;35.43;25.10;;;;;;;9.83;52.56;99370.31;4976001;28;20481;-70
2023/02/12 04:30:17;;;;;;;46.07;25.60;;;;;;;9.91;52.62;99373.31;5004223;28;20458;-68
2023/02/12 04:32:46;;;;;;;38.37;25.03;;;;;;;9.81;53.13;99382.69;4981216;28;20493;-69
2023/02/12 04:35:23;;;;;;;41.20;26.93;;;;;;;9.60;53.53;99375.16;5002232;28;20458;-69
2023/02/12 04:37:56;;;;;;;36.57;25.27;;;;;;;9.71;53.53;99390.25;4991099;28;20424;-70
2023/02/12 04:40:28;;;;;;;43.20;26.00;;;;;;;9.77;53.26;99389.03;4987295;28;20426;-68
2023/02/12 04:42:53;;;;;;;44.43;28.10;;;;;;;9.68;53.22;99388.66;4977527;28;20492;-70
2023/02/12 04:45:26;;;;;;;39.83;27.10;;;;;;;9.79;53.37;99385.38;4997624;28;20507;-69
2023/02/12 04:47:51;;;;;;;37.03;26.90;;;;;;;9.68;52.65;99388.66;4998408;28;20272;-69
2023/02/12 04:50:17;;;;;;;43.63;27.07;;;;;;;9.71;52.98;99384.16;4988497;28;20425;-69
2023/02/12 04:52:43;;;;;;;47.90;27.17;;;;;;;9.57;53.75;99385.84;4982112;28;20239;-70
2023/02/12 04:55:08;;;;;;;36.23;25.13;;;;;;;9.46;53.51;99394.34;5003136;28;20430;-69
2023/02/12 04:57:34;;;;;;;40.57;26.20;;;;;;;9.47;53.90;99389.94;5004717;28;20284;-70
2023/02/12 04:59:59;;;;;;;41.37;25.63;;;;;;;9.52;54.05;99398.38;5005772;28;20263;-69
2023/02/12 05:02:24;;;;;;;38.87;26.07;;;;;;;9.57;53.58;99400.69;5002830;28;20210;-69
2023/02/12 05:04:50;;;;;;;42.03;26.83;;;;;;;9.60;53.59;99395.28;4998449;28;20205;-69
2023/02/12 05:07:16;;;;;;;43.07;28.90;;;;;;;9.52;53.70;99406.22;5005542;28;20183;-69
2023/02/12 05:09:41;;;;;;;42.73;26.73;;;;;;;9.53;53.78;99400.06;5002176;28;20187;-70
2023/02/12 05:12:07;;;;;;;40.50;28.00;;;;;;;9.50;54.00;99397.63;5000389;28;20180;-70
2023/02/12 05:14:32;;;;;;;38.80;26.60;;;;;;;9.42;53.71;99392.00;5000469;28;20254;-69
2023/02/12 05:16:58;;;;;;;42.60;28.57;;;;;;;9.33;53.91;99390.75;4997383;28;20238;-70
2023/02/12 05:19:23;;;;;;;38.20;27.07;;;;;;;9.38;54.31;99389.56;4999428;28;20738;-71
2023/02/12 05:21:49;;;;;;;41.60;27.20;;;;;;;9.34;53.82;99385.44;4998262;28;20193;-70
2023/02/12 05:24:15;;;;;;;42.10;28.00;;;;;;;9.31;54.02;99390.00;4990035;28;20202;-69
2023/02/12 05:26:41;;;;;;;37.50;26.20;;;;;;;9.28;54.08;99391.03;5001571;28;20953;-70
2023/02/12 05:29:06;;;;;;;40.23;27.80;;;;;;;9.32;54.02;99392.56;5005396;28;20189;-70
2023/02/12 05:31:32;;;;;;;39.07;26.33;;;;;;;9.26;54.52;99392.91;4990450;28;20267;-71
2023/02/12 05:33:57;;;;;;;39.07;27.90;;;;;;;9.30;54.41;99391.81;5004839;28;20279;-70
2023/02/12 05:36:23;;;;;;;43.20;27.40;;;;;;;9.17;55.04;99399.50;5006225;28;20184;-70
2023/02/12 05:38:50;;;;;;;43.33;28.03;;;;;;;9.19;54.49;99397.66;4999173;28;20636;-70
2023/02/12 05:41:18;;;;;;;37.97;26.30;;;;;;;9.28;54.38;99392.81;5004823;28;20460;-69
2023/02/12 05:43:44;;;;;;;41.03;26.90;;;;;;;9.31;54.52;99390.88;4994590;28;20523;-70
2023/02/12 05:46:10;;;;;;;52.77;28.17;;;;;;;9.33;53.59;99398.63;5005116;28;20431;-69
2023/02/12 05:48:35;;;;;;;44.53;27.27;;;;;;;9.33;54.31;99394.22;4992310;28;20177;-70
2023/02/12 05:51:06;;;;;;;41.30;26.67;;;;;;;9.41;53.78;99400.78;4986006;28;20412;-69
2023/02/12 05:53:32;;;;;;;38.43;25.37;;;;;;;9.50;53.58;99395.00;4999509;28;20192;-70
2023/02/12 05:56:07;;;;;;;43.87;27.17;;;;;;;9.53;53.39;99395.66;4983415;28;20466;-69
2023/02/12 05:58:33;;;;;;;42.67;26.73;;;;;;;9.58;53.24;99392.75;4984427;28;20230;-69
2023/02/12 06:00:58;;;;;;;42.30;27.20;;;;;;;9.61;53.39;99396.97;5007189;28;20455;-69
2023/02/12 06:03:23;;;;;;;42.60;27.50;;;;;;;9.67;53.15;99397.44;4998131;28;20232;-70
2023/02/12 06:05:50;;;;;;;46.53;26.10;;;;;;;9.62;53.00;99396.88;4984830;28;20193;-69
2023/02/12 06:08:15;;;;;;;38.33;25.87;;;;;;;9.57;53.31;99396.31;4986993;28;20188;-70
2023/02/12 06:10:41;;;;;;;37.47;25.70;;;;;;;9.36;54.09;99394.03;5002396;28;20510;-70
2023/02/12 06:13:06;;;;;;;39.13;25.50;;;;;;;9.40;53.92;99394.69;4999536;28;20288;-69
2023/02/12 06:15:35;;;;;;;38.23;25.17;;;;;;;9.46;53.90;99390.88;5002540;28;20177;-69
2023/02/12 06:18:00;;;;;;;37.53;26.07;;;;;;;9.53;53.81;99394.81;5005968;28;20202;-70
2023/02/12 06:20:26;;;;;;;35.87;25.50;;;;;;;9.56;53.55;99396.41;5002623;28;21263;-71
2023/02/12 06:22:51;;;;;;;39.97;26.20;;;;;;;9.53;53.53;99400.06;5000140;28;20354;-71
2023/02/12 06:25:17;;;;;;;42.87;25.80;;;;;;;9.40;54.19;99397.31;4991636;28;20727;-71
2023/02/12 06:27:42;;;;;;;43.30;26.63;;;;;;;9.39;53.83;99398.25;4984520;28;20267;-70
2023/02/12 06:30:08;;;;;;;37.90;26.17;;;;;;;9.46;54.07;99403.94;5001926;28;20228;-69
2023/02/12 06:32:34;;;;;;;50.03;31.47;;;;;;;9.54;53.65;99393.88;5002865;28;20176;-70
2023/02/12 06:34:59;;;;;;;60.40;33.83;;;;;;;9.63;53.43;99401.19;5006632;28;20424;-71
2023/02/12 06:37:25;;;;;;;49.90;29.40;;;;;;;9.62;53.39;99399.50;4991411;28;20189;-71
2023/02/12 06:39:50;;;;;;;52.37;34.50;;;;;;;9.53;53.39;99408.72;5001512;28;20707;-69
2023/02/12 06:42:15;;;;;;;111.70;61.43;;;;;;;9.57;53.49;99412.03;4990556;28;20662;-70
2023/02/12 06:44:41;;;;;;;49.00;31.40;;;;;;;9.56;53.21;99404.25;4992672;28;20283;-70
2023/02/12 06:47:06;;;;;;;43.20;28.73;;;;;;;9.53;53.67;99413.97;5003720;28;20316;-70
2023/02/12 06:49:32;;;;;;;37.73;26.40;;;;;;;9.57;53.64;99412.03;4998513;28;20256;-70
2023/02/12 06:51:57;;;;;;;42.73;26.37;;;;;;;9.52;53.44;99406.22;5004351;28;20172;-69
2023/02/12 06:54:23;;;;;;;40.00;27.20;;;;;;;9.57;53.76;99412.03;4991920;28;20255;-70
2023/02/12 06:56:48;;;;;;;42.90;27.93;;;;;;;9.61;53.83;99421.38;5005172;28;20287;-70
2023/02/12 06:59:15;;;;;;;40.60;26.83;;;;;;;9.62;53.69;99420.44;5001983;28;20215;-70
2023/02/12 07:01:40;;;;;;;39.77;26.33;;;;;;;9.67;53.61;99426.25;5006204;28;20741;-70
2023/02/12 07:04:06;;;;;;;42.07;27.20;;;;;;;9.66;53.15;99423.72;4985531;28;20443;-71
2023/02/12 07:06:34;;;;;;;39.60;26.57;;;;;;;9.64;53.72;99429.06;4980662;28;20234;-71
2023/02/12 07:08:59;;;;;;;71.17;44.80;;;;;;;9.49;53.96;99435.19;5004713;28;20215;-73
2023/02/12 07:11:29;;;;;;;57.60;38.80;;;;;;;9.45;54.16;99431.09;5000169;28;21008;-70
2023/02/12 07:13:55;;;;;;;44.80;32.00;;;;;;;9.51;53.71;99431.53;5005153;28;20466;-70
2023/02/12 07:16:20;;;;;;;46.20;29.23;;;;;;;9.51;53.50;99428.09;5001632;28;20502;-69
2023/02/12 07:18:46;;;;;;;46.27;31.90;;;;;;;9.55;53.76;99427.00;5005678;28;20173;-70
2023/02/12 07:21:13;;;;;;;45.60;30.60;;;;;;;9.63;53.78;99427.34;4983894;28;20295;-70
2023/02/12 07:23:38;;;;;;;42.60;29.80;;;;;;;9.64;53.79;99429.06;4999285;28;20200;-71
2023/02/12 07:26:06;;;;;;;39.97;27.80;;;;;;;9.70;53.56;99434.88;4998066;28;20419;-69
2023/02/12 07:28:34;;;;;;;40.83;28.37;;;;;;;9.63;53.61;99432.59;5003947;28;20183;-72
2023/02/12 07:31:09;;;;;;;44.73;29.17;;;;;;;9.64;53.01;99423.81;5009227;28;20591;-70
2023/02/12 07:33:35;;;;;;;41.77;27.33;;;;;;;9.69;53.65;99431.38;4995966;28;20435;-70
2023/02/12 07:36:01;;;;;;;46.30;30.00;;;;;;;9.78;53.50;99432.63;5009823;28;20988;-70
2023/02/12 07:38:27;;;;;;;43.83;28.43;;;;;;;9.90;53.67;99431.00;5004516;28;20451;-70
2023/02/12 07:40:52;;;;;;;50.40;30.40;;;;;;;10.01;54.12;99435.59;5005183;28;20874;-70
2023/02/12 07:43:18;;;;;;;42.90;30.20;;;;;;;10.15;53.41;99435.59;4999013;28;20443;-70
2023/02/12 07:45:43;;;;;;;48.33;33.63;;;;;;;10.22;52.96;99431.66;5005000;28;20722;-70
2023/02/12 07:48:09;;;;;;;54.70;35.20;;;;;;;10.32;52.66;99429.31;4999875;28;20173;-69
2023/02/12 07:50:34;;;;;;;51.43;32.23;;;;;;;10.35;51.83;99428.25;5009711;28;20185;-70
2023/02/12 07:53:00;;;;;;;49.87;30.80;;;;;;;10.27;52.09;99437.47;4999026;28;20193;-71
2023/02/12 07:55:25;;;;;;;46.40;30.43;;;;;;;10.18;52.61;99432.81;5007884;28;20260;-71
2023/02/12 07:57:50;;;;;;;49.30;33.43;;;;;;;10.07;52.37;99437.88;5003823;28;20208;-70
2023/02/12 08:00:16;;;;;;;54.30;33.33;;;;;;;10.03;52.70;99434.56;4991514;28;20199;-69
2023/02/12 08:02:42;;;;;;;49.20;32.40;;;;;;;9.95;52.92;99429.81;4991609;28;20269;-70
2023/02/12 08:05:07;;;;;;;50.63;32.60;;;;;;;9.91;52.59;99425.69;5000857;28;20187;-68
2023/02/12 08:07:33;;;;;;;47.87;33.13;;;;;;;9.84;52.41;99433.09;5006285;28;20724;-69
2023/02/12 08:09:58;;;;;;;45.50;31.33;;;;;;;9.84;52.74;99438.31;4984199;28;20284;-70
2023/02/12 08:12:24;;;;;;;46.67;29.97;;;;;;;9.77;52.47;99442.22;5007577;28;20761;-71
2023/02/12 08:14:49;;;;;;;46.53;30.13;;;;;;;9.70;52.90;99432.25;4991191;28;20630;-70
2023/02/12 08:17:14;;;;;;;43.37;30.67;;;;;;;9.61;52.66;99433.63;5008186;28;20216;-70
2023/02/12 08:19:40;;;;;;;44.03;28.70;;;;;;;9.73;52.37;99434.66;5007395;28;20242;-70
2023/02/12 08:22:06;;;;;;;46.97;30.67;;;;;;;9.67;52.55;99438.50;4999650;28;20219;-70
2023/02/12 08:24:31;;;;;;;47.77;30.70;;;;;;;9.73;52.75;99432.91;4983513;28;20209;-70
2023/02/12 08:26:57;;;;;;;41.97;30.13;;;;;;;9.83;52.46;99425.31;5001099;28;20474;-70
2023/02/12 08:29:26;;;;;;;46.43;30.60;;;;;;;9.81;52.39;99420.16;5008982;28;20212;-69
2023/02/12 08:31:59;;;;;;;46.20;30.80;;;;;;;9.92;52.59;99427.38;5003657;28;20243;-70
2023/02/12 08:34:30;;;;;;;43.90;30.33;;;;;;;9.89;52.37;99424.13;5003493;28;20461;-70
2023/02/12 08:36:56;;;;;;;46.87;32.70;;;;;;;9.88;52.42;99419.81;4986852;28;20768;-71
2023/02/12 08:39:23;;;;;;;50.80;33.37;;;;;;;9.88;52.46;99420.63;5002304;28;20433;-69
2023/02/12 08:41:49;;;;;;;46.60;33.70;;;;;;;9.87;52.26;99432.06;4999495;28;20514;-72
2023/02/12 08:44:15;;;;;;;51.60;34.37;;;;;;;9.84;52.75;99421.75;4994428;28;21049;-70
2023/02/12 08:46:50;;;;;;;50.53;34.77;;;;;;;9.94;52.42;99427.28;4997330;28;20543;-70
2023/02/12 08:49:21;;;;;;;55.50;34.27;;;;;;;9.90;52.28;99423.16;4990753;28;20185;-70
2023/02/12 08:51:49;;;;;;;51.50;35.10;;;;;;;9.95;52.10;99431.59;4996762;28;20419;-72
2023/02/12 08:54:24;;;;;;;51.70;35.73;;;;;;;9.92;51.74;99432.63;4961368;28;20475;-72
2023/02/12 08:56:50;;;;;;;56.67;36.60;;;;;;;9.98;52.20;99432.22;5000722;28;20459;-74
2023/02/12 08:59:16;;;;;;;50.20;34.97;;;;;;;9.99;52.21;99426.06;4986316;28;20435;-73
2023/02/12 09:01:42;;;;;;;53.80;36.20;;;;;;;10.15;52.36;99427.75;5005214;28;20819;-71
2023/02/12 09:04:16;;;;;;;56.07;36.27;;;;;;;10.21;52.43;99431.75;4987174;28;20502;-72
2023/02/12 09:06:42;;;;;;;59.93;36.57;;;;;;;10.39;51.80;99435.91;4995217;28;20415;-70
2023/02/12 09:09:08;;;;;;;59.30;35.60;;;;;;;10.40;51.77;99436.72;5006246;28;20422;-72
2023/02/12 09:11:34;;;;;;;54.33;35.00;;;;;;;10.47;51.73;99435.38;5000551;28;20411;-69
2023/02/12 09:14:01;;;;;;;54.00;37.30;;;;;;;10.50;51.91;99424.72;5000023;28;20204;-71
2023/02/12 09:16:28;;;;;;;59.90;36.23;;;;;;;10.60;51.63;99428.41;4998004;28;20285;-70
2023/02/12 09:18:54;;;;;;;54.50;36.40;;;;;;;10.70;51.90;99427.84;5008164;28;20419;-68
2023/02/12 09:21:19;;;;;;;53.17;34.17;;;;;;;10.70;52.11;99425.22;5002831;28;20959;-70
2023/02/12 09:23:46;;;;;;;53.40;35.13;;;;;;;10.72;52.06;99431.19;4998750;28;20675;-69
2023/02/12 09:26:14;;;;;;;52.47;33.77;;;;;;;10.76;52.45;99427.44;4985739;28;20196;-68
2023/02/12 09:28:40;;;;;;;49.27;30.87;;;;;;;10.69;52.60;99432.25;4995599;28;20520;-69
2023/02/12 09:31:06;;;;;;;46.37;29.80;;;;;;;10.75;52.68;99436.25;4973673;28;20416;-69
2023/02/12 09:33:33;;;;;;;44.33;26.07;;;;;;;10.79;52.83;99440.38;4981386;28;20439;-69
2023/02/12 09:36:03;;;;;;;39.03;25.57;;;;;;;10.78;52.94;99441.31;4968255;28;20932;-66
2023/02/12 09:38:29;;;;;;;35.40;24.10;;;;;;;10.78;53.42;99441.31;5001552;28;20425;-69
2023/02/12 09:41:25;;;;;;;33.40;21.50;;;;;;;10.72;53.50;99439.06;5003927;28;20845;-70
2023/02/12 09:44:10;;;;;;;34.17;22.47;;;;;;;10.72;53.78;99437.28;4993452;28;20793;-70
2023/02/12 09:46:53;;;;;;;23.50;16.30;;;;;;;10.81;53.48;99441.13;4984273;28;20435;-72
2023/02/12 09:49:30;;;;;;;26.20;17.47;;;;;;;10.80;53.49;99435.94;4980119;28;20495;-71
2023/02/12 09:51:56;;;;;;;23.63;14.73;;;;;;;10.80;53.43;99439.44;4984855;28;20971;-69
2023/02/12 09:54:36;;;;;;;21.13;14.60;;;;;;;10.79;53.88;99440.38;4998245;28;20592;-69
2023/02/12 09:57:05;;;;;;;24.93;16.13;;;;;;;10.81;53.98;99435.88;4980709;28;20491;-71
2023/02/12 09:59:44;;;;;;;16.73;10.80;;;;;;;10.84;53.98;99440.91;5001509;28;20423;-70
2023/02/12 10:02:17;;;;;;;11.83;8.37;;;;;;;10.88;53.40;99445.00;4999974;28;20539;-70
2023/02/12 10:04:43;;;;;;;11.90;8.70;;;;;;;10.91;53.17;99436.94;4992493;28;20468;-69
2023/02/12 10:07:14;;;;;;;10.30;8.30;;;;;;;10.85;53.29;99442.56;4966229;28;20446;-68
2023/02/12 10:10:05;;;;;;;12.63;9.03;;;;;;;11.00;53.43;99434.66;4978084;28;20467;-73
2023/02/12 10:12:39;;;;;;;11.37;8.57;;;;;;;10.92;53.52;99443.03;4981771;28;20423;-70
2023/02/12 10:15:29;;;;;;;12.10;8.83;;;;;;;11.01;53.33;99438.97;4973203;28;20443;-71
2023/02/12 10:18:07;;;;;;;14.17;9.57;;;;;;;11.05;53.34;99437.84;4988567;28;20433;-70
2023/02/12 10:20:45;;;;;;;14.63;8.90;;;;;;;11.06;53.20;99434.25;4974012;28;20455;-70
2023/02/12 10:23:29;;;;;;;13.20;8.90;;;;;;;11.14;53.21;99436.38;4992781;28;21071;-72
2023/02/12 10:25:57;;;;;;;12.40;8.90;;;;;;;11.09;52.96;99438.47;4996502;28;20849;-71
2023/02/12 10:28:25;;;;;;;15.80;10.80;;;;;;;11.00;53.20;99437.28;4981590;28;21019;-73
2023/02/12 10:31:01;;;;;;;14.83;10.17;;;;;;;11.10;52.90;99432.28;4981919;28;20429;-71
2023/02/12 10:33:28;;;;;;;13.50;9.70;;;;;;;11.14;52.95;99431.97;4996353;28;22235;-71
2023/02/12 10:36:01;;;;;;;12.70;10.60;;;;;;;11.09;53.23;99439.28;4983477;28;20416;-68
2023/02/12 10:38:30;;;;;;;15.07;10.33;;;;;;;11.03;52.84;99432.66;4998994;28;20432;-69
2023/02/12 10:40:57;;;;;;;14.93;10.70;;;;;;;11.12;53.04;99431.22;4982288;28;20495;-70
2023/02/12 10:43:23;;;;;;;17.80;11.30;;;;;;;11.19;52.96;99429.88;4994985;28;20535;-71
2023/02/12 10:45:49;;;;;;;15.00;10.60;;;;;;;11.24;53.15;99420.84;4984202;28;20428;-71
2023/02/12 10:48:24;;;;;;;20.00;11.63;;;;;;;11.26;53.18;99429.47;4995149;28;20424;-71
2023/02/12 10:50:55;;;;;;;16.63;10.93;;;;;;;11.27;52.94;99426.75;4987464;28;20504;-71
2023/02/12 10:53:28;;;;;;;15.30;10.57;;;;;;;11.27;52.95;99415.41;5000136;28;20440;-70
2023/02/12 10:56:17;;;;;;;12.67;9.30;;;;;;;11.22;52.89;99418.34;4986333;28;20439;-70
2023/02/12 10:58:49;;;;;;;12.57;9.07;;;;;;;11.26;53.23;99417.19;4989540;28;20418;-72
2023/02/12 11:01:36;;;;;;;11.40;9.00;;;;;;;11.29;53.15;99413.53;5004345;28;20470;-71
2023/02/12 11:04:24;;;;;;;12.40;8.57;;;;;;;11.36;52.99;99409.53;5003039;28;20498;-71
2023/02/12 11:07:02;;;;;;;11.97;8.80;;;;;;;11.44;52.71;99409.88;4977566;28;20429;-70
2023/02/12 11:09:49;;;;;;;13.90;9.13;;;;;;;11.44;52.84;99412.50;4984807;28;21206;-71
2023/02/12 11:12:31;;;;;;;10.50;8.00;;;;;;;11.40;52.81;99415.44;5004460;28;20433;-71
2023/02/12 11:15:00;;;;;;;10.83;7.90;;;;;;;11.41;52.37;99406.59;4981379;28;20555;-71
2023/02/12 11:17:30;;;;;;;19.43;12.70;;;;;;;11.42;52.86;99403.88;5000342;28;20441;-71
2023/02/12 11:20:17;;;;;;;8.83;7.27;;;;;;;11.53;52.84;99409.22;4984420;28;20454;-71
2023/02/12 11:23:00;;;;;;;25.50;16.00;;;;;;;11.59;52.51;99409.78;4987002;28;20834;-71
2023/02/12 11:25:31;;;;;;;12.73;8.13;;;;;;;11.57;52.41;99406.41;4999314;28;20955;-71
2023/02/12 11:28:15;;;;;;;12.97;9.00;;;;;;;11.63;52.57;99405.97;4984002;28;20439;-70
2023/02/12 11:30:57;;;;;;;10.00;7.70;;;;;;;11.73;52.73;99398.31;4995778;28;20419;-71
2023/02/12 11:33:25;;;;;;;15.53;7.93;;;;;;;11.81;52.42;99396.84;4995254;28;20440;-71
2023/02/12 11:36:03;;;;;;;9.80;6.77;;;;;;;11.78;52.04;99397.03;5002942;28;20481;-71